createdAt,value
2022-11-15T00:01:28.130Z,11.67
2022-11-15T00:03:55.243Z,11.37
2022-11-15T00:06:22.448Z,10.93
2022-11-15T00:08:49.483Z,10.90
2022-11-15T00:11:16.749Z,11.87
2022-11-15T00:13:43.850Z,11.30
2022-11-15T00:16:11.724Z,11.80
2022-11-15T00:18:39.848Z,11.17
2022-11-15T00:21:11.426Z,12.67
2022-11-15T00:23:38.876Z,11.53
2022-11-15T00:26:06.289Z,10.43
2022-11-15T00:28:33.439Z,10.37
2022-11-15T00:31:06.437Z,10.17
2022-11-15T00:33:34.916Z,10.90
2022-11-15T00:36:10.182Z,8.63
2022-11-15T00:38:40.782Z,14.00
2022-11-15T00:41:09.850Z,9.60
2022-11-15T00:43:37.654Z,12.90
2022-11-15T00:46:04.986Z,11.10
2022-11-15T00:48:32.587Z,10.63
2022-11-15T00:50:59.635Z,10.67
2022-11-15T00:53:26.752Z,14.73
2022-11-15T00:55:54.283Z,9.53
2022-11-15T00:58:21.366Z,11.83
2022-11-15T01:00:48.978Z,10.70
2022-11-15T01:03:16.143Z,12.00
2022-11-15T01:05:43.323Z,11.57
2022-11-15T01:08:15.718Z,10.23
2022-11-15T01:10:43.271Z,11.00
2022-11-15T01:13:10.308Z,11.67
2022-11-15T01:15:41.827Z,12.40
2022-11-15T01:18:09.231Z,11.43
2022-11-15T01:20:43.604Z,11.90
2022-11-15T01:23:11.115Z,13.47
2022-11-15T01:25:38.259Z,11.27
2022-11-15T01:28:05.484Z,12.00
2022-11-15T01:30:32.770Z,10.93
2022-11-15T01:32:59.797Z,10.83
2022-11-15T01:35:26.814Z,11.53
2022-11-15T01:37:53.948Z,11.80
2022-11-15T01:40:21.001Z,10.60
2022-11-15T01:42:48.032Z,10.77
2022-11-15T01:45:18.229Z,11.23
2022-11-15T01:47:53.646Z,11.57
2022-11-15T01:50:33.360Z,9.77
2022-11-15T01:53:00.694Z,11.83
2022-11-15T01:55:29.983Z,11.20
2022-11-15T01:58:04.657Z,10.10
2022-11-15T02:00:33.359Z,10.67
2022-11-15T02:03:00.903Z,11.10
2022-11-15T02:05:28.404Z,10.17
2022-11-15T02:07:56.024Z,10.77
2022-11-15T02:10:25.813Z,10.53
2022-11-15T02:12:54.549Z,10.33
2022-11-15T02:15:22.461Z,10.03
2022-11-15T02:18:15.597Z,10.47
2022-11-15T02:20:59.651Z,10.50
2022-11-15T02:23:57.318Z,10.93
2022-11-15T02:27:15.398Z,11.27
2022-11-15T02:29:54.296Z,9.57
2022-11-15T02:32:50.130Z,10.20
2022-11-15T02:35:48.702Z,10.33
2022-11-15T02:38:44.392Z,9.53
2022-11-15T02:41:19.595Z,9.23
2022-11-15T02:44:11.681Z,10.33
2022-11-15T02:47:16.440Z,10.50
2022-11-15T02:49:58.072Z,10.40
2022-11-15T02:52:27.276Z,9.70
2022-11-15T02:55:02.573Z,10.50
2022-11-15T02:58:04.891Z,10.20
2022-11-15T03:00:44.674Z,9.97
2022-11-15T03:03:42.853Z,9.13
2022-11-15T03:06:37.581Z,8.83
2022-11-15T03:09:32.416Z,9.87
2022-11-15T03:12:11.942Z,9.67
2022-11-15T03:14:58.022Z,11.80
2022-11-15T03:17:32.742Z,9.93
2022-11-15T03:20:05.105Z,9.90
2022-11-15T03:22:39.334Z,10.27
2022-11-15T03:25:15.185Z,9.87
2022-11-15T03:27:49.741Z,9.73
2022-11-15T03:30:18.352Z,9.37
2022-11-15T03:32:57.458Z,10.07
2022-11-15T03:35:31.458Z,9.93
2022-11-15T03:38:27.405Z,9.57
2022-11-15T03:41:16.964Z,10.43
2022-11-15T03:44:05.621Z,8.97
2022-11-15T03:46:48.867Z,10.10
2022-11-15T03:49:26.829Z,9.67
2022-11-15T03:51:54.035Z,9.03
2022-11-15T03:54:21.475Z,11.23
2022-11-15T03:56:48.691Z,9.40
2022-11-15T03:59:15.759Z,10.37
2022-11-15T04:01:42.784Z,9.33
2022-11-15T04:04:09.946Z,9.37
2022-11-15T04:06:37.134Z,8.87
2022-11-15T04:09:04.782Z,9.17
2022-11-15T04:11:32.010Z,8.77
2022-11-15T04:13:59.136Z,9.33
2022-11-15T04:16:26.158Z,8.97
2022-11-15T04:19:13.140Z,8.50
2022-11-15T04:21:58.491Z,7.50
2022-11-15T04:24:25.593Z,8.63
2022-11-15T04:26:52.897Z,8.60
2022-11-15T04:29:38.415Z,8.07
2022-11-15T04:32:07.877Z,8.00
2022-11-15T04:34:35.482Z,8.47
2022-11-15T04:37:14.889Z,8.50
2022-11-15T04:39:43.037Z,8.70
2022-11-15T04:42:11.194Z,7.67
2022-11-15T04:44:38.749Z,7.70
2022-11-15T04:47:06.025Z,7.97
2022-11-15T04:49:33.109Z,7.43
2022-11-15T04:52:00.485Z,8.07
2022-11-15T04:54:27.714Z,7.70
2022-11-15T04:56:54.819Z,6.90
2022-11-15T04:59:21.982Z,7.10
2022-11-15T05:01:49.048Z,7.70
2022-11-15T05:04:21.708Z,8.07
2022-11-15T05:06:52.980Z,8.23
2022-11-15T05:09:21.718Z,7.67
2022-11-15T05:11:49.606Z,7.70
2022-11-15T05:14:17.311Z,7.30
2022-11-15T05:16:44.799Z,8.40
2022-11-15T05:19:12.063Z,7.47
2022-11-15T05:21:39.773Z,6.90
2022-11-15T05:24:07.813Z,8.20
2022-11-15T05:26:35.591Z,7.70
2022-11-15T05:29:03.339Z,7.37
2022-11-15T05:31:30.455Z,7.23
2022-11-15T05:34:01.178Z,7.70
2022-11-15T05:36:43.896Z,7.73
2022-11-15T05:39:11.286Z,8.07
2022-11-15T05:42:14.249Z,8.13
2022-11-15T05:44:48.136Z,7.57
2022-11-15T05:47:26.138Z,7.50
2022-11-15T05:49:54.854Z,7.67
2022-11-15T05:52:29.159Z,7.87
2022-11-15T05:54:58.786Z,7.57
2022-11-15T05:57:26.220Z,8.03
2022-11-15T05:59:54.674Z,7.90
2022-11-15T06:02:21.829Z,7.47
2022-11-15T06:04:48.971Z,7.60
2022-11-15T06:07:16.165Z,9.10
2022-11-15T06:09:43.352Z,7.70
2022-11-15T06:12:10.487Z,7.53
2022-11-15T06:14:37.611Z,8.00
2022-11-15T06:17:08.648Z,6.87
2022-11-15T06:19:38.415Z,7.50
2022-11-15T06:22:05.654Z,8.20
2022-11-15T06:24:32.737Z,6.97
2022-11-15T06:27:00.209Z,7.30
2022-11-15T06:29:27.235Z,6.87
2022-11-15T06:31:54.343Z,7.13
2022-11-15T06:34:21.433Z,6.60
2022-11-15T06:36:48.647Z,7.23
2022-11-15T06:39:15.934Z,7.00
2022-11-15T06:41:43.357Z,6.90
2022-11-15T06:44:10.420Z,6.53
2022-11-15T06:46:37.625Z,6.83
2022-11-15T06:49:09.393Z,6.50
2022-11-15T06:51:37.005Z,6.20
2022-11-15T06:54:04.146Z,5.57
2022-11-15T06:56:31.420Z,3.93
2022-11-15T06:58:58.667Z,3.67
2022-11-15T07:01:32.063Z,3.93
2022-11-15T07:03:59.161Z,3.60
2022-11-15T07:06:26.301Z,4.50
2022-11-15T07:08:53.507Z,6.47
2022-11-15T07:11:20.823Z,3.53
2022-11-15T07:13:47.964Z,4.20
2022-11-15T07:16:15.165Z,3.93
2022-11-15T07:18:42.589Z,3.57
2022-11-15T07:21:12.382Z,4.67
2022-11-15T07:23:41.069Z,4.90
2022-11-15T07:26:09.482Z,5.73
2022-11-15T07:28:37.225Z,5.30
2022-11-15T07:31:07.085Z,5.87
2022-11-15T07:33:34.720Z,4.37
2022-11-15T07:36:05.150Z,3.47
2022-11-15T07:38:35.781Z,4.23
2022-11-15T07:41:07.995Z,4.90
2022-11-15T07:43:35.380Z,4.60
2022-11-15T07:46:10.501Z,3.27
2022-11-15T07:48:45.263Z,3.83
2022-11-15T07:51:15.416Z,3.03
2022-11-15T07:53:44.697Z,3.53
2022-11-15T07:56:12.411Z,3.83
2022-11-15T07:58:39.755Z,3.20
2022-11-15T08:01:10.627Z,3.20
2022-11-15T08:03:38.282Z,3.53
2022-11-15T08:06:06.203Z,4.57
2022-11-15T08:08:33.453Z,3.07
2022-11-15T08:11:01.028Z,3.30
2022-11-15T08:13:28.893Z,3.00
2022-11-15T08:16:06.516Z,3.70
2022-11-15T08:18:33.842Z,4.13
2022-11-15T08:21:02.825Z,3.93
2022-11-15T08:23:30.558Z,4.93
2022-11-15T08:26:04.199Z,4.60
2022-11-15T08:28:34.600Z,6.03
2022-11-15T08:31:01.876Z,4.23
2022-11-15T08:33:29.555Z,3.43
2022-11-15T08:36:01.711Z,3.20
2022-11-15T08:38:34.229Z,3.53
2022-11-15T08:41:07.170Z,3.17
2022-11-15T08:43:34.947Z,3.10
2022-11-15T08:46:02.348Z,3.70
2022-11-15T08:48:30.745Z,4.33
2022-11-15T08:50:58.496Z,2.63
2022-11-15T08:53:25.661Z,2.90
2022-11-15T08:55:52.741Z,3.37
2022-11-15T08:58:19.836Z,2.30
2022-11-15T09:00:46.950Z,2.17
2022-11-15T09:03:14.006Z,2.20
2022-11-15T09:05:41.196Z,1.93
2022-11-15T09:08:32.460Z,2.63
2022-11-15T09:10:55.642Z,2.50
2022-11-15T09:13:23.407Z,2.00
2022-11-15T09:15:50.555Z,1.77
2022-11-15T09:18:17.642Z,2.17
2022-11-15T09:20:45.257Z,2.10
2022-11-15T09:23:12.384Z,3.00
2022-11-15T09:25:39.490Z,2.10
2022-11-15T09:28:10.311Z,2.03
2022-11-15T09:30:37.407Z,1.70
2022-11-15T09:33:13.113Z,1.50
2022-11-15T09:35:41.936Z,2.17
2022-11-15T09:38:09.953Z,1.40
2022-11-15T09:40:38.994Z,2.13
2022-11-15T09:43:25.327Z,1.93
2022-11-15T09:46:19.392Z,2.80
2022-11-15T09:49:03.794Z,3.23
2022-11-15T09:51:47.710Z,3.50
2022-11-15T09:54:52.909Z,3.57
2022-11-15T09:57:31.763Z,2.63
2022-11-15T10:00:45.895Z,1.70
2022-11-15T10:03:31.898Z,2.77
2022-11-15T10:06:05.914Z,1.20
2022-11-15T10:08:52.666Z,3.17
2022-11-15T10:11:37.774Z,2.00
2022-11-15T10:14:20.025Z,2.43
2022-11-15T10:17:03.595Z,1.93
2022-11-15T10:19:41.985Z,1.63
2022-11-15T10:22:41.125Z,3.30
2022-11-15T10:25:13.875Z,2.33
2022-11-15T10:27:43.431Z,2.73
2022-11-15T10:30:18.035Z,2.40
2022-11-15T10:32:48.592Z,2.70
2022-11-15T10:35:42.653Z,1.57
2022-11-15T10:38:13.643Z,2.03
2022-11-15T10:40:44.733Z,2.87
2022-11-15T10:43:11.833Z,1.90
2022-11-15T10:45:39.692Z,2.00
2022-11-15T10:48:15.910Z,2.30
2022-11-15T10:50:46.791Z,1.27
2022-11-15T10:53:44.908Z,1.73
2022-11-15T10:56:18.575Z,2.23
2022-11-15T10:58:57.157Z,2.97
2022-11-15T11:01:32.588Z,2.93
2022-11-15T11:04:21.814Z,1.90
2022-11-15T11:07:01.173Z,1.47
2022-11-15T11:09:44.123Z,2.23
2022-11-15T11:12:13.091Z,2.10
2022-11-15T11:14:41.162Z,1.50
2022-11-15T11:17:30.646Z,2.77
2022-11-15T11:20:39.552Z,1.87
2022-11-15T11:23:21.482Z,2.47
2022-11-15T11:26:09.873Z,1.30
2022-11-15T11:29:30.170Z,2.17
2022-11-15T11:32:31.149Z,1.60
2022-11-15T11:35:04.056Z,2.47
2022-11-15T11:37:56.104Z,2.13
2022-11-15T11:40:44.592Z,2.50
2022-11-15T11:43:35.899Z,2.40
2022-11-15T11:46:52.481Z,4.23
2022-11-15T11:49:49.404Z,1.90
2022-11-15T11:53:00.809Z,2.53
2022-11-15T11:55:39.095Z,1.13
2022-11-15T11:58:17.009Z,2.77
2022-11-15T12:01:01.223Z,1.20
2022-11-15T12:03:33.993Z,2.30
2022-11-15T12:06:30.354Z,1.97
2022-11-15T12:09:18.809Z,3.87
2022-11-15T12:11:59.067Z,1.50
2022-11-15T12:14:41.653Z,3.07
2022-11-15T12:17:13.046Z,2.17
2022-11-15T12:19:43.771Z,2.40
2022-11-15T12:22:25.689Z,1.50
2022-11-15T12:25:21.745Z,1.60
2022-11-15T12:28:21.007Z,1.87
2022-11-15T12:31:17.657Z,2.37
2022-11-15T12:33:48.125Z,1.70
2022-11-15T12:36:24.399Z,2.17
2022-11-15T12:39:07.910Z,2.87
2022-11-15T12:41:38.842Z,2.00
2022-11-15T12:44:14.433Z,3.33
2022-11-15T12:46:41.735Z,1.60
2022-11-15T12:49:26.868Z,1.63
2022-11-15T12:52:00.124Z,2.33
2022-11-15T12:54:28.348Z,1.77
2022-11-15T12:57:04.629Z,1.53
2022-11-15T13:00:16.170Z,2.50
2022-11-15T13:02:49.612Z,2.03
2022-11-15T13:05:16.622Z,2.40
2022-11-15T13:07:43.920Z,1.40
2022-11-15T13:10:13.996Z,2.00
2022-11-15T13:12:47.177Z,2.97
2022-11-15T13:15:14.192Z,3.93
2022-11-15T13:17:58.377Z,2.40
2022-11-15T13:20:32.116Z,1.73
2022-11-15T13:23:04.893Z,1.97
2022-11-15T13:25:40.894Z,2.07
2022-11-15T13:28:11.245Z,3.30
2022-11-15T13:30:39.046Z,3.33
2022-11-15T13:33:29.379Z,2.53
2022-11-15T13:36:08.633Z,1.33
2022-11-15T13:38:41.855Z,2.90
2022-11-15T13:41:18.105Z,1.90
2022-11-15T13:43:45.294Z,2.90
2022-11-15T13:46:29.533Z,2.57
2022-11-15T13:49:05.297Z,2.10
2022-11-15T13:51:54.782Z,2.40
2022-11-15T13:54:42.937Z,2.47
2022-11-15T13:57:26.117Z,2.83
2022-11-15T14:00:04.793Z,3.07
2022-11-15T14:02:35.156Z,3.07
2022-11-15T14:05:23.803Z,4.47
2022-11-15T14:08:02.381Z,3.00
2022-11-15T14:10:31.980Z,3.40
2022-11-15T14:13:00.054Z,3.80
2022-11-15T14:15:35.721Z,2.87
2022-11-15T14:18:04.819Z,2.70
2022-11-15T14:20:39.540Z,3.10
2022-11-15T14:23:28.308Z,2.33
2022-11-15T14:25:59.002Z,3.77
2022-11-15T14:28:26.007Z,2.80
2022-11-15T14:30:59.674Z,1.77
2022-11-15T14:33:37.387Z,3.30
2022-11-15T14:36:17.984Z,3.20
2022-11-15T14:38:45.161Z,3.57
2022-11-15T14:41:21.482Z,3.60
2022-11-15T14:43:49.171Z,3.00
2022-11-15T14:46:16.449Z,3.60
2022-11-15T14:48:43.692Z,3.07
2022-11-15T14:51:18.629Z,3.80
2022-11-15T14:53:47.742Z,3.93
2022-11-15T14:56:17.315Z,3.17
2022-11-15T14:58:44.565Z,2.83
2022-11-15T15:01:27.291Z,4.63
2022-11-15T15:03:58.120Z,2.20
2022-11-15T15:06:26.978Z,3.13
2022-11-15T15:08:54.240Z,3.43
2022-11-15T15:11:27.032Z,4.40
2022-11-15T15:13:58.058Z,2.83
2022-11-15T15:16:26.147Z,3.70
2022-11-15T15:18:53.768Z,3.83
2022-11-15T15:21:36.795Z,4.47
2022-11-15T15:24:05.011Z,5.60
2022-11-15T15:26:36.141Z,5.13
2022-11-15T15:29:03.522Z,5.70
2022-11-15T15:31:30.618Z,3.83
2022-11-15T15:33:57.806Z,4.20
2022-11-15T15:36:25.079Z,5.90
2022-11-15T15:38:52.475Z,5.83
2022-11-15T15:41:19.977Z,3.37
2022-11-15T15:43:47.225Z,4.00
2022-11-15T15:46:20.368Z,3.63
2022-11-15T15:48:48.072Z,3.90
2022-11-15T15:51:20.385Z,7.23
2022-11-15T15:53:49.359Z,4.00
2022-11-15T15:56:16.567Z,4.73
2022-11-15T15:58:43.714Z,4.00
2022-11-15T16:01:11.029Z,4.37
2022-11-15T16:03:38.153Z,3.03
2022-11-15T16:06:06.251Z,5.03
2022-11-15T16:08:53.501Z,2.60
2022-11-15T16:11:21.034Z,5.07
2022-11-15T16:13:58.422Z,4.93
2022-11-15T16:16:27.762Z,8.10
2022-11-15T16:18:55.565Z,6.83
2022-11-15T16:21:22.809Z,5.70
2022-11-15T16:23:49.952Z,5.30
2022-11-15T16:26:28.417Z,3.83
2022-11-15T16:28:55.994Z,3.57
2022-11-15T16:31:23.348Z,4.17
2022-11-15T16:33:50.802Z,4.20
2022-11-15T16:36:30.253Z,3.83
2022-11-15T16:38:58.277Z,3.30
2022-11-15T16:41:25.922Z,4.63
2022-11-15T16:44:29.750Z,3.10
2022-11-15T16:46:56.926Z,5.33
2022-11-15T16:49:24.499Z,4.07
2022-11-15T16:51:51.859Z,3.87
2022-11-15T16:54:18.955Z,4.87
2022-11-15T16:56:46.128Z,6.30
2022-11-15T16:59:18.007Z,5.10
2022-11-15T17:01:50.846Z,5.63
2022-11-15T17:04:22.837Z,4.10
2022-11-15T17:06:50.385Z,4.30
2022-11-15T17:09:21.191Z,6.93
2022-11-15T17:11:48.408Z,5.33
2022-11-15T17:14:16.351Z,5.67
2022-11-15T17:16:44.602Z,5.73
2022-11-15T17:19:20.597Z,4.00
2022-11-15T17:21:51.655Z,6.27
2022-11-15T17:24:41.020Z,3.60
2022-11-15T17:27:08.229Z,4.93
2022-11-15T17:29:38.203Z,4.20
2022-11-15T17:32:05.290Z,4.30
2022-11-15T17:34:32.502Z,4.33
2022-11-15T17:36:59.865Z,4.00
2022-11-15T17:39:27.095Z,3.77
2022-11-15T17:41:54.497Z,3.37
2022-11-15T17:44:21.877Z,3.80
2022-11-15T17:46:48.988Z,3.73
2022-11-15T17:49:18.903Z,4.63
2022-11-15T17:51:49.780Z,5.87
2022-11-15T17:54:17.275Z,4.43
2022-11-15T17:56:44.409Z,3.67
2022-11-15T17:59:15.955Z,4.23
2022-11-15T18:01:45.936Z,4.03
2022-11-15T18:04:15.129Z,4.33
2022-11-15T18:06:43.221Z,4.23
2022-11-15T18:09:10.503Z,4.07
2022-11-15T18:11:41.772Z,4.53
2022-11-15T18:14:14.821Z,7.43
2022-11-15T18:16:42.813Z,5.90
2022-11-15T18:19:14.012Z,6.17
2022-11-15T18:21:57.067Z,5.93
2022-11-15T18:24:30.272Z,6.27
2022-11-15T18:26:58.918Z,8.93
2022-11-15T18:29:26.297Z,6.60
2022-11-15T18:31:57.796Z,7.97
2022-11-15T18:34:32.347Z,9.67
2022-11-15T18:37:02.839Z,10.33
2022-11-15T18:39:30.539Z,5.27
2022-11-15T18:41:58.671Z,9.53
2022-11-15T18:44:25.923Z,15.23
2022-11-15T18:46:53.312Z,8.50
2022-11-15T18:49:20.601Z,6.80
2022-11-15T18:51:48.554Z,5.30
2022-11-15T18:54:18.195Z,5.70
2022-11-15T18:56:46.046Z,5.80
2022-11-15T18:59:14.007Z,4.83
2022-11-15T19:01:48.453Z,5.07
2022-11-15T19:04:19.826Z,7.73
2022-11-15T19:06:49.526Z,7.23
2022-11-15T19:09:19.466Z,5.40
2022-11-15T19:11:49.132Z,4.80
2022-11-15T19:14:18.100Z,6.10
2022-11-15T19:16:55.296Z,3.70
2022-11-15T19:19:26.367Z,4.90
2022-11-15T19:21:54.431Z,6.13
2022-11-15T19:24:21.710Z,4.20
2022-11-15T19:26:48.814Z,4.00
2022-11-15T19:29:17.364Z,5.93
2022-11-15T19:31:44.530Z,5.20
2022-11-15T19:34:13.005Z,4.97
2022-11-15T19:36:46.545Z,4.20
2022-11-15T19:39:15.516Z,4.60
2022-11-15T19:41:44.779Z,5.77
2022-11-15T19:44:13.949Z,4.67
2022-11-15T19:46:41.993Z,4.17
2022-11-15T19:49:11.233Z,4.47
2022-11-15T19:51:42.650Z,4.60
2022-11-15T19:54:10.635Z,5.10
2022-11-15T19:56:40.301Z,5.17
2022-11-15T19:59:09.210Z,5.17
2022-11-15T20:01:39.118Z,5.60
2022-11-15T20:04:08.211Z,5.23
2022-11-15T20:06:40.592Z,6.10
2022-11-15T20:09:08.924Z,5.60
2022-11-15T20:11:38.149Z,5.67
2022-11-15T20:14:11.796Z,5.90
2022-11-15T20:16:39.566Z,6.27
2022-11-15T20:19:08.594Z,5.60
2022-11-15T20:21:36.417Z,6.07
2022-11-15T20:24:04.716Z,4.90
2022-11-15T20:26:32.567Z,5.93
2022-11-15T20:29:02.254Z,6.67
2022-11-15T20:31:30.216Z,5.17
2022-11-15T20:33:57.742Z,6.77
2022-11-15T20:36:25.103Z,6.60
2022-11-15T20:39:00.767Z,4.80
2022-11-15T20:41:28.602Z,5.33
2022-11-15T20:44:02.780Z,5.30
2022-11-15T20:46:29.942Z,5.67
2022-11-15T20:48:57.034Z,6.07
2022-11-15T20:51:24.175Z,5.40
2022-11-15T20:53:51.832Z,5.73
2022-11-15T20:56:22.281Z,6.07
2022-11-15T20:58:50.710Z,6.27
2022-11-15T21:01:23.889Z,6.30
2022-11-15T21:03:53.869Z,6.70
2022-11-15T21:06:22.233Z,6.00
2022-11-15T21:09:10.023Z,6.50
2022-11-15T21:11:56.026Z,5.87
2022-11-15T21:14:23.375Z,5.80
2022-11-15T21:16:51.053Z,6.50
2022-11-15T21:19:19.750Z,6.40
2022-11-15T21:21:50.040Z,7.33
2022-11-15T21:24:18.261Z,7.20
2022-11-15T21:26:45.444Z,6.43
2022-11-15T21:29:17.201Z,6.30
2022-11-15T21:31:46.077Z,6.17
2022-11-15T21:34:13.919Z,6.37
2022-11-15T21:36:41.342Z,7.70
2022-11-15T21:39:08.568Z,6.10
2022-11-15T21:41:35.888Z,6.43
2022-11-15T21:44:05.123Z,6.30
2022-11-15T21:46:32.961Z,5.83
2022-11-15T21:49:00.346Z,6.90
2022-11-15T21:51:39.958Z,6.50
2022-11-15T21:54:07.993Z,6.07
2022-11-15T21:56:35.371Z,6.53
2022-11-15T21:59:02.864Z,5.23
2022-11-15T22:01:48.501Z,6.40
2022-11-15T22:04:16.783Z,6.23
2022-11-15T22:06:46.289Z,6.63
2022-11-15T22:09:13.660Z,5.77
2022-11-15T22:11:40.948Z,6.00
2022-11-15T22:14:08.744Z,7.00
2022-11-15T22:16:37.804Z,6.30
2022-11-15T22:19:05.392Z,6.63
2022-11-15T22:21:41.009Z,6.27
2022-11-15T22:24:10.121Z,5.60
2022-11-15T22:27:16.136Z,6.93
2022-11-15T22:29:43.587Z,5.43
2022-11-15T22:32:11.079Z,6.10
2022-11-15T22:34:38.288Z,6.27
2022-11-15T22:37:19.910Z,5.93
2022-11-15T22:39:48.187Z,7.97
2022-11-15T22:42:19.385Z,5.30
2022-11-15T22:44:49.517Z,6.10
2022-11-15T22:47:16.929Z,5.83
2022-11-15T22:49:44.778Z,6.30
2022-11-15T22:52:13.848Z,6.17
2022-11-15T22:54:41.150Z,6.77
2022-11-15T22:57:08.409Z,6.77
2022-11-15T22:59:37.714Z,7.03
2022-11-15T23:02:08.535Z,7.10
2022-11-15T23:04:35.811Z,7.47
2022-11-15T23:07:03.230Z,6.90
2022-11-15T23:09:30.588Z,7.33
2022-11-15T23:12:16.459Z,7.67
2022-11-15T23:14:43.977Z,7.37
2022-11-15T23:17:11.328Z,8.47
2022-11-15T23:19:38.659Z,7.43
2022-11-15T23:22:24.788Z,7.77
2022-11-15T23:24:53.566Z,8.00
2022-11-15T23:27:21.016Z,8.03
2022-11-15T23:30:06.775Z,8.37
2022-11-15T23:32:52.462Z,8.30
2022-11-15T23:35:19.736Z,7.80
2022-11-15T23:37:46.909Z,8.37
2022-11-15T23:40:14.111Z,8.27
2022-11-15T23:42:41.235Z,8.87
2022-11-15T23:45:08.938Z,8.20
2022-11-15T23:47:36.096Z,8.47
2022-11-15T23:50:04.255Z,8.20
2022-11-15T23:52:31.359Z,9.33
2022-11-15T23:54:58.444Z,8.37
2022-11-15T23:57:25.595Z,7.87
2022-11-15T23:59:52.980Z,9.23
